Overview Statistics Trail Chart Weather Telemetry Raw packets
 

This is the latest recevied weather packets stored in our database for station/object OE5RBO. If no packets are shown the sender has not sent any weather packets the latest 10 day(s).

<< 20 21 22 23 24 25 26 >>
Time Temp. Humidity Pressure Rain* Wind** Luminosity Snow
1788293609 16.67° C 89% 1022 hPa 0 mm - - -
1788293009 16.67° C 88% 1021.9 hPa 0 mm - - -
1788292408 17.22° C 87% 1021.8 hPa 0 mm - - -
1788291808 17.78° C 85% 1021.8 hPa 0 mm - - -
1788291208 17.78° C 84% 1021.7 hPa 0 mm - - -
1788290607 18.33° C 81% 1021.7 hPa 0 mm - - -
1788290007 18.33° C 79% 1021.4 hPa 0 mm - - -
1788288806 18.89° C 78% 1021.3 hPa 0 mm - - -
1788288206 19.44° C 76% 1021.3 hPa 0 mm - - -
1788287606 19.44° C 75% 1021.1 hPa 0 mm - - -
1788287005 20° C 74% 1020.9 hPa 0 mm - - -
1788286404 20.56° C 72% 1020.8 hPa 0 mm - - -
1788285804 20.56° C 71% 1020.8 hPa 0 mm - - -
1788285204 21.11° C 70% 1020.8 hPa 0 mm - - -
1788284603 21.67° C 68% 1020.6 hPa 0 mm - - -
1788283403 23.89° C 63% 1020.7 hPa 0 mm - - -
1788282802 24.44° C 61% 1020.6 hPa 0 mm - - -
1788282202 25° C 59% 1020.6 hPa 0 mm - - -
1788281602 25° C 58% 1020.6 hPa 0 mm - - -
1788281001 25° C 55% 1020.6 hPa 0 mm - - -
1788280401 25.56° C 51% 1020.5 hPa 0 mm - - -
1788279800 25° C 55% 1020.6 hPa 0 mm - - -
1788279200 25.56° C 53% 1020.6 hPa 0 mm - - -
1788278600 26.67° C 51% 1020.6 hPa 0 mm - - -
1788277999 27.22° C 49% 1020.7 hPa 0 mm - - -

* Rain since midnight (hover to see other rain measurements)
** Current wind speed in m/s (hover to see current wind gust speed)